sensor_id;sensor_type;location;lat;lon;timestamp;temperature;humidity
36292;DHT22;22327;51.208;6.418;2022-12-07T00:00:29;8.30;99.90
36292;DHT22;22327;51.208;6.418;2022-12-07T00:02:55;8.40;99.90
36292;DHT22;22327;51.208;6.418;2022-12-07T00:05:21;8.30;99.90
36292;DHT22;22327;51.208;6.418;2022-12-07T00:07:46;8.30;99.90
36292;DHT22;22327;51.208;6.418;2022-12-07T00:10:12;8.40;99.90
36292;DHT22;22327;51.208;6.418;2022-12-07T00:12:37;8.30;99.90
36292;DHT22;22327;51.208;6.418;2022-12-07T00:15:03;8.40;99.90
36292;DHT22;22327;51.208;6.418;2022-12-07T00:17:30;8.30;99.90
36292;DHT22;22327;51.208;6.418;2022-12-07T00:19:55;8.30;99.90
36292;DHT22;22327;51.208;6.418;2022-12-07T00:22:21;8.30;99.90
36292;DHT22;22327;51.208;6.418;2022-12-07T00:24:46;8.30;99.90
36292;DHT22;22327;51.208;6.418;2022-12-07T00:27:12;8.30;99.90
36292;DHT22;22327;51.208;6.418;2022-12-07T00:29:37;8.40;99.90
36292;DHT22;22327;51.208;6.418;2022-12-07T00:32:03;8.40;99.90
36292;DHT22;22327;51.208;6.418;2022-12-07T00:34:29;8.50;99.90
36292;DHT22;22327;51.208;6.418;2022-12-07T00:36:54;8.50;99.90
36292;DHT22;22327;51.208;6.418;2022-12-07T00:39:20;8.50;99.90
36292;DHT22;22327;51.208;6.418;2022-12-07T00:41:45;8.50;99.90
36292;DHT22;22327;51.208;6.418;2022-12-07T00:44:11;8.60;99.90
36292;DHT22;22327;51.208;6.418;2022-12-07T00:46:36;8.60;99.90
36292;DHT22;22327;51.208;6.418;2022-12-07T00:49:02;8.70;99.90
36292;DHT22;22327;51.208;6.418;2022-12-07T00:51:28;8.80;99.90
36292;DHT22;22327;51.208;6.418;2022-12-07T00:53:53;8.70;99.90
36292;DHT22;22327;51.208;6.418;2022-12-07T00:56:22;8.70;99.90
36292;DHT22;22327;51.208;6.418;2022-12-07T00:58:56;8.70;99.90
36292;DHT22;22327;51.208;6.418;2022-12-07T01:01:23;8.70;99.90
36292;DHT22;22327;51.208;6.418;2022-12-07T01:03:49;8.70;99.90
36292;DHT22;22327;51.208;6.418;2022-12-07T01:06:16;8.60;99.90
36292;DHT22;22327;51.208;6.418;2022-12-07T01:08:42;8.60;99.90
36292;DHT22;22327;51.208;6.418;2022-12-07T01:11:11;8.60;99.90
36292;DHT22;22327;51.208;6.418;2022-12-07T01:13:37;8.60;99.90
36292;DHT22;22327;51.208;6.418;2022-12-07T01:16:05;8.60;99.90
36292;DHT22;22327;51.208;6.418;2022-12-07T01:18:34;8.70;99.90
36292;DHT22;22327;51.208;6.418;2022-12-07T01:21:02;8.70;99.90
36292;DHT22;22327;51.208;6.418;2022-12-07T01:23:29;8.70;99.90
36292;DHT22;22327;51.208;6.418;2022-12-07T01:25:56;8.70;99.90
36292;DHT22;22327;51.208;6.418;2022-12-07T01:28:22;8.70;99.90
36292;DHT22;22327;51.208;6.418;2022-12-07T01:31:02;8.70;99.90
36292;DHT22;22327;51.208;6.418;2022-12-07T01:33:29;8.60;99.90
36292;DHT22;22327;51.208;6.418;2022-12-07T01:36:04;8.50;99.90
36292;DHT22;22327;51.208;6.418;2022-12-07T01:38:31;8.50;99.90
36292;DHT22;22327;51.208;6.418;2022-12-07T01:40:57;8.50;99.90
36292;DHT22;22327;51.208;6.418;2022-12-07T01:43:24;8.50;99.90
36292;DHT22;22327;51.208;6.418;2022-12-07T01:45:51;8.60;99.90
36292;DHT22;22327;51.208;6.418;2022-12-07T01:48:20;8.60;99.90
36292;DHT22;22327;51.208;6.418;2022-12-07T01:50:48;8.70;99.90
36292;DHT22;22327;51.208;6.418;2022-12-07T01:53:16;8.60;99.90
36292;DHT22;22327;51.208;6.418;2022-12-07T01:55:45;8.60;99.90
36292;DHT22;22327;51.208;6.418;2022-12-07T01:58:13;8.60;99.90
36292;DHT22;22327;51.208;6.418;2022-12-07T02:00:40;8.50;99.90
36292;DHT22;22327;51.208;6.418;2022-12-07T02:03:27;8.60;99.90
36292;DHT22;22327;51.208;6.418;2022-12-07T02:05:54;8.50;99.90
36292;DHT22;22327;51.208;6.418;2022-12-07T02:08:21;8.50;99.90
36292;DHT22;22327;51.208;6.418;2022-12-07T02:10:46;8.50;99.90
36292;DHT22;22327;51.208;6.418;2022-12-07T02:13:14;8.50;99.90
36292;DHT22;22327;51.208;6.418;2022-12-07T02:16:11;8.50;99.90
36292;DHT22;22327;51.208;6.418;2022-12-07T02:18:57;8.50;99.90
36292;DHT22;22327;51.208;6.418;2022-12-07T02:27:27;8.30;99.90
36292;DHT22;22327;51.208;6.418;2022-12-07T02:30:05;8.20;99.90
36292;DHT22;22327;51.208;6.418;2022-12-07T02:32:55;8.20;99.90
36292;DHT22;22327;51.208;6.418;2022-12-07T02:35:30;8.20;99.90
36292;DHT22;22327;51.208;6.418;2022-12-07T02:38:30;8.20;99.90
36292;DHT22;22327;51.208;6.418;2022-12-07T02:41:02;8.30;99.90
36292;DHT22;22327;51.208;6.418;2022-12-07T02:43:33;8.30;99.90
36292;DHT22;22327;51.208;6.418;2022-12-07T02:46:06;8.30;99.90
36292;DHT22;22327;51.208;6.418;2022-12-07T02:48:33;8.40;99.90
36292;DHT22;22327;51.208;6.418;2022-12-07T02:51:00;8.40;99.90
36292;DHT22;22327;51.208;6.418;2022-12-07T02:53:42;8.40;99.90
36292;DHT22;22327;51.208;6.418;2022-12-07T02:56:51;8.40;99.90
36292;DHT22;22327;51.208;6.418;2022-12-07T02:59:37;8.50;99.90
36292;DHT22;22327;51.208;6.418;2022-12-07T03:02:12;8.40;99.90
36292;DHT22;22327;51.208;6.418;2022-12-07T03:07:57;8.30;99.90
36292;DHT22;22327;51.208;6.418;2022-12-07T03:13:03;8.20;99.90
36292;DHT22;22327;51.208;6.418;2022-12-07T03:15:46;8.20;99.90
36292;DHT22;22327;51.208;6.418;2022-12-07T03:18:15;8.10;99.90
36292;DHT22;22327;51.208;6.418;2022-12-07T03:20:43;8.10;99.90
36292;DHT22;22327;51.208;6.418;2022-12-07T03:23:10;8.00;99.90
36292;DHT22;22327;51.208;6.418;2022-12-07T03:25:44;8.00;99.90
36292;DHT22;22327;51.208;6.418;2022-12-07T03:28:11;8.00;99.90
36292;DHT22;22327;51.208;6.418;2022-12-07T03:30:42;8.00;99.90
36292;DHT22;22327;51.208;6.418;2022-12-07T03:33:14;7.90;99.90
36292;DHT22;22327;51.208;6.418;2022-12-07T03:35:45;8.00;99.90
36292;DHT22;22327;51.208;6.418;2022-12-07T03:38:22;8.10;99.90
36292;DHT22;22327;51.208;6.418;2022-12-07T03:40:57;8.10;99.90
36292;DHT22;22327;51.208;6.418;2022-12-07T03:43:24;8.10;99.90
36292;DHT22;22327;51.208;6.418;2022-12-07T03:48:35;8.20;99.90
36292;DHT22;22327;51.208;6.418;2022-12-07T03:51:26;8.00;99.90
36292;DHT22;22327;51.208;6.418;2022-12-07T03:54:17;8.00;99.90
36292;DHT22;22327;51.208;6.418;2022-12-07T03:56:44;8.00;99.90
36292;DHT22;22327;51.208;6.418;2022-12-07T03:59:12;8.00;99.90
36292;DHT22;22327;51.208;6.418;2022-12-07T04:01:38;8.00;99.90
36292;DHT22;22327;51.208;6.418;2022-12-07T04:04:03;7.90;99.90
36292;DHT22;22327;51.208;6.418;2022-12-07T04:06:29;7.80;99.90
36292;DHT22;22327;51.208;6.418;2022-12-07T04:08:54;7.70;99.90
36292;DHT22;22327;51.208;6.418;2022-12-07T04:11:20;7.70;99.90
36292;DHT22;22327;51.208;6.418;2022-12-07T04:13:46;7.70;99.90
36292;DHT22;22327;51.208;6.418;2022-12-07T04:16:34;7.70;99.90
36292;DHT22;22327;51.208;6.418;2022-12-07T04:19:00;7.70;99.90
36292;DHT22;22327;51.208;6.418;2022-12-07T04:21:25;7.80;99.90
36292;DHT22;22327;51.208;6.418;2022-12-07T04:23:51;7.80;99.90
36292;DHT22;22327;51.208;6.418;2022-12-07T04:26:16;7.90;99.90
36292;DHT22;22327;51.208;6.418;2022-12-07T04:28:42;7.80;99.90
36292;DHT22;22327;51.208;6.418;2022-12-07T04:31:08;7.90;99.90
36292;DHT22;22327;51.208;6.418;2022-12-07T04:33:35;7.90;99.90
36292;DHT22;22327;51.208;6.418;2022-12-07T04:36:01;7.90;99.90
36292;DHT22;22327;51.208;6.418;2022-12-07T04:38:27;7.90;99.90
36292;DHT22;22327;51.208;6.418;2022-12-07T04:40:52;7.90;99.90
36292;DHT22;22327;51.208;6.418;2022-12-07T04:43:18;7.90;99.90
36292;DHT22;22327;51.208;6.418;2022-12-07T04:45:47;7.90;99.90
36292;DHT22;22327;51.208;6.418;2022-12-07T04:48:13;7.90;99.90
36292;DHT22;22327;51.208;6.418;2022-12-07T04:50:39;7.90;99.90
36292;DHT22;22327;51.208;6.418;2022-12-07T04:53:04;7.90;99.90
36292;DHT22;22327;51.208;6.418;2022-12-07T04:55:30;7.90;99.90
36292;DHT22;22327;51.208;6.418;2022-12-07T04:57:55;7.90;99.90
36292;DHT22;22327;51.208;6.418;2022-12-07T05:00:21;7.90;99.90
36292;DHT22;22327;51.208;6.418;2022-12-07T05:02:46;7.90;99.90
36292;DHT22;22327;51.208;6.418;2022-12-07T05:05:12;7.90;99.90
36292;DHT22;22327;51.208;6.418;2022-12-07T05:07:37;7.90;99.90
36292;DHT22;22327;51.208;6.418;2022-12-07T05:10:03;7.80;99.90
36292;DHT22;22327;51.208;6.418;2022-12-07T05:12:29;7.80;99.90
36292;DHT22;22327;51.208;6.418;2022-12-07T05:14:54;7.70;99.90
36292;DHT22;22327;51.208;6.418;2022-12-07T05:17:20;7.70;99.90
36292;DHT22;22327;51.208;6.418;2022-12-07T05:19:45;7.70;99.90
36292;DHT22;22327;51.208;6.418;2022-12-07T05:22:11;7.60;99.90
36292;DHT22;22327;51.208;6.418;2022-12-07T05:24:36;7.60;99.90
36292;DHT22;22327;51.208;6.418;2022-12-07T05:27:02;7.50;99.90
36292;DHT22;22327;51.208;6.418;2022-12-07T05:29:28;7.60;99.90
36292;DHT22;22327;51.208;6.418;2022-12-07T05:31:53;7.60;99.90
36292;DHT22;22327;51.208;6.418;2022-12-07T05:34:19;7.60;99.90
36292;DHT22;22327;51.208;6.418;2022-12-07T05:36:44;7.70;99.90
36292;DHT22;22327;51.208;6.418;2022-12-07T05:39:10;7.70;99.90
36292;DHT22;22327;51.208;6.418;2022-12-07T05:41:36;7.70;99.90
36292;DHT22;22327;51.208;6.418;2022-12-07T05:44:20;7.70;99.90
36292;DHT22;22327;51.208;6.418;2022-12-07T05:46:45;7.70;99.90
36292;DHT22;22327;51.208;6.418;2022-12-07T05:49:11;7.60;99.90
36292;DHT22;22327;51.208;6.418;2022-12-07T05:51:36;7.60;99.90
36292;DHT22;22327;51.208;6.418;2022-12-07T05:54:02;7.60;99.90
36292;DHT22;22327;51.208;6.418;2022-12-07T05:56:28;7.60;99.90
36292;DHT22;22327;51.208;6.418;2022-12-07T05:58:54;7.60;99.90
36292;DHT22;22327;51.208;6.418;2022-12-07T06:01:38;7.70;99.90
36292;DHT22;22327;51.208;6.418;2022-12-07T06:04:03;7.70;99.90
36292;DHT22;22327;51.208;6.418;2022-12-07T06:06:29;7.80;99.90
36292;DHT22;22327;51.208;6.418;2022-12-07T06:08:54;7.90;99.90
36292;DHT22;22327;51.208;6.418;2022-12-07T06:11:20;7.90;99.90
36292;DHT22;22327;51.208;6.418;2022-12-07T06:14:04;7.90;99.90
36292;DHT22;22327;51.208;6.418;2022-12-07T06:16:29;7.90;99.90
36292;DHT22;22327;51.208;6.418;2022-12-07T06:18:55;8.00;99.90
36292;DHT22;22327;51.208;6.418;2022-12-07T06:21:20;8.00;99.90
36292;DHT22;22327;51.208;6.418;2022-12-07T06:23:46;8.00;99.90
36292;DHT22;22327;51.208;6.418;2022-12-07T06:26:13;8.00;99.90
36292;DHT22;22327;51.208;6.418;2022-12-07T06:28:38;7.90;99.90
36292;DHT22;22327;51.208;6.418;2022-12-07T06:31:04;7.90;99.90
36292;DHT22;22327;51.208;6.418;2022-12-07T06:33:29;7.90;99.90
36292;DHT22;22327;51.208;6.418;2022-12-07T06:35:55;7.90;99.90
36292;DHT22;22327;51.208;6.418;2022-12-07T06:38:21;8.00;99.90
36292;DHT22;22327;51.208;6.418;2022-12-07T06:40:46;8.00;99.90
36292;DHT22;22327;51.208;6.418;2022-12-07T06:43:13;7.90;99.90
36292;DHT22;22327;51.208;6.418;2022-12-07T06:45:39;7.90;99.90
36292;DHT22;22327;51.208;6.418;2022-12-07T06:48:05;7.90;99.90
36292;DHT22;22327;51.208;6.418;2022-12-07T06:50:30;7.90;99.90
36292;DHT22;22327;51.208;6.418;2022-12-07T06:52:56;7.80;99.90
36292;DHT22;22327;51.208;6.418;2022-12-07T06:55:21;7.90;99.90
36292;DHT22;22327;51.208;6.418;2022-12-07T06:57:47;7.80;99.90
36292;DHT22;22327;51.208;6.418;2022-12-07T07:00:13;7.80;99.90
36292;DHT22;22327;51.208;6.418;2022-12-07T07:02:39;7.70;99.90
36292;DHT22;22327;51.208;6.418;2022-12-07T07:05:04;7.70;99.90
36292;DHT22;22327;51.208;6.418;2022-12-07T07:07:30;7.70;99.90
36292;DHT22;22327;51.208;6.418;2022-12-07T07:09:55;7.60;99.90
36292;DHT22;22327;51.208;6.418;2022-12-07T07:12:21;7.50;99.90
36292;DHT22;22327;51.208;6.418;2022-12-07T07:14:46;7.40;99.90
36292;DHT22;22327;51.208;6.418;2022-12-07T07:17:12;7.40;99.90
36292;DHT22;22327;51.208;6.418;2022-12-07T07:19:38;7.30;99.90
36292;DHT22;22327;51.208;6.418;2022-12-07T07:22:04;7.30;99.90
36292;DHT22;22327;51.208;6.418;2022-12-07T07:24:29;7.30;99.90
36292;DHT22;22327;51.208;6.418;2022-12-07T07:26:55;7.30;99.90
36292;DHT22;22327;51.208;6.418;2022-12-07T07:29:20;7.40;99.90
36292;DHT22;22327;51.208;6.418;2022-12-07T07:31:46;7.40;99.90
36292;DHT22;22327;51.208;6.418;2022-12-07T07:34:12;7.50;99.90
36292;DHT22;22327;51.208;6.418;2022-12-07T07:36:37;7.50;99.90
36292;DHT22;22327;51.208;6.418;2022-12-07T07:39:03;7.40;99.90
36292;DHT22;22327;51.208;6.418;2022-12-07T07:41:28;7.40;99.90
36292;DHT22;22327;51.208;6.418;2022-12-07T07:43:54;7.40;99.90
36292;DHT22;22327;51.208;6.418;2022-12-07T07:46:19;7.50;99.90
36292;DHT22;22327;51.208;6.418;2022-12-07T07:48:45;7.40;99.90
36292;DHT22;22327;51.208;6.418;2022-12-07T07:51:11;7.40;99.90
36292;DHT22;22327;51.208;6.418;2022-12-07T07:53:36;7.40;99.90
36292;DHT22;22327;51.208;6.418;2022-12-07T07:56:02;7.40;99.90
36292;DHT22;22327;51.208;6.418;2022-12-07T07:58:28;7.30;99.90
36292;DHT22;22327;51.208;6.418;2022-12-07T08:00:54;7.40;99.90
36292;DHT22;22327;51.208;6.418;2022-12-07T08:03:19;7.40;99.90
36292;DHT22;22327;51.208;6.418;2022-12-07T08:05:45;7.40;99.90
36292;DHT22;22327;51.208;6.418;2022-12-07T08:08:11;7.50;99.90
36292;DHT22;22327;51.208;6.418;2022-12-07T08:10:36;7.60;99.90
36292;DHT22;22327;51.208;6.418;2022-12-07T08:13:03;7.60;99.90
36292;DHT22;22327;51.208;6.418;2022-12-07T08:15:40;7.80;99.90
36292;DHT22;22327;51.208;6.418;2022-12-07T08:18:06;7.80;99.90
36292;DHT22;22327;51.208;6.418;2022-12-07T08:20:33;7.90;99.90
36292;DHT22;22327;51.208;6.418;2022-12-07T08:23:00;8.00;99.90
36292;DHT22;22327;51.208;6.418;2022-12-07T08:25:26;8.00;99.90
36292;DHT22;22327;51.208;6.418;2022-12-07T08:27:52;8.10;99.90
36292;DHT22;22327;51.208;6.418;2022-12-07T08:30:18;8.10;99.90
36292;DHT22;22327;51.208;6.418;2022-12-07T08:32:45;8.20;99.90
36292;DHT22;22327;51.208;6.418;2022-12-07T08:35:11;8.30;99.90
36292;DHT22;22327;51.208;6.418;2022-12-07T08:37:36;8.30;99.90
36292;DHT22;22327;51.208;6.418;2022-12-07T08:40:03;8.30;99.90
36292;DHT22;22327;51.208;6.418;2022-12-07T08:42:28;8.30;99.90
36292;DHT22;22327;51.208;6.418;2022-12-07T08:45:09;8.20;99.90
36292;DHT22;22327;51.208;6.418;2022-12-07T08:47:39;8.30;99.90
36292;DHT22;22327;51.208;6.418;2022-12-07T08:50:07;8.30;99.90
36292;DHT22;22327;51.208;6.418;2022-12-07T08:52:34;8.30;99.90
36292;DHT22;22327;51.208;6.418;2022-12-07T08:55:00;8.40;99.90
36292;DHT22;22327;51.208;6.418;2022-12-07T08:57:27;8.50;99.90
36292;DHT22;22327;51.208;6.418;2022-12-07T08:59:54;8.80;99.90
36292;DHT22;22327;51.208;6.418;2022-12-07T09:02:19;9.00;99.90
36292;DHT22;22327;51.208;6.418;2022-12-07T09:04:45;9.20;99.90
36292;DHT22;22327;51.208;6.418;2022-12-07T09:07:10;9.20;99.50
36292;DHT22;22327;51.208;6.418;2022-12-07T09:09:36;9.10;99.10
36292;DHT22;22327;51.208;6.418;2022-12-07T09:12:02;9.00;99.10
36292;DHT22;22327;51.208;6.418;2022-12-07T09:14:28;8.90;99.30
36292;DHT22;22327;51.208;6.418;2022-12-07T09:16:53;8.80;99.40
36292;DHT22;22327;51.208;6.418;2022-12-07T09:19:19;8.70;99.60
36292;DHT22;22327;51.208;6.418;2022-12-07T09:21:44;8.70;99.70
36292;DHT22;22327;51.208;6.418;2022-12-07T09:24:12;8.70;99.90
36292;DHT22;22327;51.208;6.418;2022-12-07T09:26:37;8.70;99.90
36292;DHT22;22327;51.208;6.418;2022-12-07T09:29:04;8.80;99.90
36292;DHT22;22327;51.208;6.418;2022-12-07T09:31:30;8.90;99.90
36292;DHT22;22327;51.208;6.418;2022-12-07T09:33:56;9.10;99.90
36292;DHT22;22327;51.208;6.418;2022-12-07T09:36:22;9.20;99.90
36292;DHT22;22327;51.208;6.418;2022-12-07T09:38:48;9.40;99.50
36292;DHT22;22327;51.208;6.418;2022-12-07T09:41:13;9.40;99.10
36292;DHT22;22327;51.208;6.418;2022-12-07T09:43:40;9.50;98.80
36292;DHT22;22327;51.208;6.418;2022-12-07T09:46:13;9.40;98.60
36292;DHT22;22327;51.208;6.418;2022-12-07T09:48:39;9.40;98.70
36292;DHT22;22327;51.208;6.418;2022-12-07T09:51:35;9.30;98.60
36292;DHT22;22327;51.208;6.418;2022-12-07T09:54:01;9.20;98.80
36292;DHT22;22327;51.208;6.418;2022-12-07T09:56:29;9.20;99.10
36292;DHT22;22327;51.208;6.418;2022-12-07T09:59:00;9.40;99.50
36292;DHT22;22327;51.208;6.418;2022-12-07T10:01:33;9.50;99.30
36292;DHT22;22327;51.208;6.418;2022-12-07T10:04:21;9.60;99.10
36292;DHT22;22327;51.208;6.418;2022-12-07T10:06:47;9.80;98.70
36292;DHT22;22327;51.208;6.418;2022-12-07T10:09:15;9.80;98.50
36292;DHT22;22327;51.208;6.418;2022-12-07T10:12:08;9.80;98.30
36292;DHT22;22327;51.208;6.418;2022-12-07T10:14:40;9.90;98.00
36292;DHT22;22327;51.208;6.418;2022-12-07T10:20:15;9.80;98.40
36292;DHT22;22327;51.208;6.418;2022-12-07T10:25:21;10.00;98.10
36292;DHT22;22327;51.208;6.418;2022-12-07T10:28:17;10.10;98.20
36292;DHT22;22327;51.208;6.418;2022-12-07T10:30:51;10.10;97.90
36292;DHT22;22327;51.208;6.418;2022-12-07T10:33:35;10.20;97.90
36292;DHT22;22327;51.208;6.418;2022-12-07T10:36:20;10.20;97.80
36292;DHT22;22327;51.208;6.418;2022-12-07T10:38:51;10.20;97.30
36292;DHT22;22327;51.208;6.418;2022-12-07T10:41:18;10.10;97.50
36292;DHT22;22327;51.208;6.418;2022-12-07T10:43:56;10.10;97.90
36292;DHT22;22327;51.208;6.418;2022-12-07T10:46:48;10.10;97.80
36292;DHT22;22327;51.208;6.418;2022-12-07T10:55:20;10.20;97.90
36292;DHT22;22327;51.208;6.418;2022-12-07T10:58:12;10.20;97.70
36292;DHT22;22327;51.208;6.418;2022-12-07T11:00:54;10.20;97.50
36292;DHT22;22327;51.208;6.418;2022-12-07T11:06:39;10.20;97.80
36292;DHT22;22327;51.208;6.418;2022-12-07T11:21:04;10.40;96.90
36292;DHT22;22327;51.208;6.418;2022-12-07T11:24:04;10.40;97.10
36292;DHT22;22327;51.208;6.418;2022-12-07T11:34:59;10.90;96.30
36292;DHT22;22327;51.208;6.418;2022-12-07T11:37:34;10.90;96.10
36292;DHT22;22327;51.208;6.418;2022-12-07T11:45:31;10.90;96.00
36292;DHT22;22327;51.208;6.418;2022-12-07T11:48:05;11.00;96.00
36292;DHT22;22327;51.208;6.418;2022-12-07T11:53:38;11.00;95.60
36292;DHT22;22327;51.208;6.418;2022-12-07T11:56:12;11.00;95.80
36292;DHT22;22327;51.208;6.418;2022-12-07T12:03:58;11.00;94.90
36292;DHT22;22327;51.208;6.418;2022-12-07T12:06:26;10.90;94.80
36292;DHT22;22327;51.208;6.418;2022-12-07T12:09:05;10.90;95.10
36292;DHT22;22327;51.208;6.418;2022-12-07T12:11:50;10.90;94.60
36292;DHT22;22327;51.208;6.418;2022-12-07T12:20:21;11.10;95.40
36292;DHT22;22327;51.208;6.418;2022-12-07T12:25:41;11.30;94.70
36292;DHT22;22327;51.208;6.418;2022-12-07T12:28:24;11.30;94.40
36292;DHT22;22327;51.208;6.418;2022-12-07T12:31:13;11.30;94.30
36292;DHT22;22327;51.208;6.418;2022-12-07T12:33:51;11.40;93.90
36292;DHT22;22327;51.208;6.418;2022-12-07T12:46:55;11.20;93.70
36292;DHT22;22327;51.208;6.418;2022-12-07T12:51:47;11.30;94.00
36292;DHT22;22327;51.208;6.418;2022-12-07T12:54:25;11.40;94.30
36292;DHT22;22327;51.208;6.418;2022-12-07T12:57:16;11.60;94.50
36292;DHT22;22327;51.208;6.418;2022-12-07T12:59:56;11.70;94.20
36292;DHT22;22327;51.208;6.418;2022-12-07T13:15:45;11.90;93.30
36292;DHT22;22327;51.208;6.418;2022-12-07T13:28:52;12.00;92.30
36292;DHT22;22327;51.208;6.418;2022-12-07T13:31:50;11.90;92.00
36292;DHT22;22327;51.208;6.418;2022-12-07T13:34:37;11.90;92.10
36292;DHT22;22327;51.208;6.418;2022-12-07T13:39:49;11.80;92.40
36292;DHT22;22327;51.208;6.418;2022-12-07T13:42:29;11.70;92.40
36292;DHT22;22327;51.208;6.418;2022-12-07T13:44:56;11.70;92.40
36292;DHT22;22327;51.208;6.418;2022-12-07T13:50:00;11.50;92.20
36292;DHT22;22327;51.208;6.418;2022-12-07T13:52:29;11.30;92.30
36292;DHT22;22327;51.208;6.418;2022-12-07T13:54:58;11.20;92.40
36292;DHT22;22327;51.208;6.418;2022-12-07T13:57:26;11.10;92.60
36292;DHT22;22327;51.208;6.418;2022-12-07T13:59:52;11.00;93.10
36292;DHT22;22327;51.208;6.418;2022-12-07T14:02:30;11.00;93.00
36292;DHT22;22327;51.208;6.418;2022-12-07T14:05:23;11.00;93.30
36292;DHT22;22327;51.208;6.418;2022-12-07T14:10:26;10.80;93.10
36292;DHT22;22327;51.208;6.418;2022-12-07T14:12:52;10.80;93.20
36292;DHT22;22327;51.208;6.418;2022-12-07T14:15:23;10.70;93.40
36292;DHT22;22327;51.208;6.418;2022-12-07T14:17:54;10.60;93.60
36292;DHT22;22327;51.208;6.418;2022-12-07T14:21:02;10.50;93.90
36292;DHT22;22327;51.208;6.418;2022-12-07T14:23:28;10.40;94.20
36292;DHT22;22327;51.208;6.418;2022-12-07T14:25:53;10.30;94.40
36292;DHT22;22327;51.208;6.418;2022-12-07T14:28:28;10.30;94.40
36292;DHT22;22327;51.208;6.418;2022-12-07T14:30:54;10.30;94.60
36292;DHT22;22327;51.208;6.418;2022-12-07T14:33:20;10.10;94.60
36292;DHT22;22327;51.208;6.418;2022-12-07T14:35:46;10.00;94.90
36292;DHT22;22327;51.208;6.418;2022-12-07T14:38:11;9.80;95.30
36292;DHT22;22327;51.208;6.418;2022-12-07T14:40:38;9.80;95.60
36292;DHT22;22327;51.208;6.418;2022-12-07T14:43:08;9.70;95.80
36292;DHT22;22327;51.208;6.418;2022-12-07T14:45:34;9.60;96.30
36292;DHT22;22327;51.208;6.418;2022-12-07T14:47:59;9.50;96.10
36292;DHT22;22327;51.208;6.418;2022-12-07T14:50:25;9.50;96.40
36292;DHT22;22327;51.208;6.418;2022-12-07T14:53:00;9.40;96.50
36292;DHT22;22327;51.208;6.418;2022-12-07T14:55:28;9.40;96.50
36292;DHT22;22327;51.208;6.418;2022-12-07T14:57:55;9.30;96.70
36292;DHT22;22327;51.208;6.418;2022-12-07T15:00:23;9.40;96.80
36292;DHT22;22327;51.208;6.418;2022-12-07T15:02:49;9.30;96.80
36292;DHT22;22327;51.208;6.418;2022-12-07T15:05:16;9.30;96.90
36292;DHT22;22327;51.208;6.418;2022-12-07T15:07:41;9.20;96.90
36292;DHT22;22327;51.208;6.418;2022-12-07T15:10:34;9.10;97.10
36292;DHT22;22327;51.208;6.418;2022-12-07T15:13:01;9.10;97.10
36292;DHT22;22327;51.208;6.418;2022-12-07T15:15:47;9.00;97.30
36292;DHT22;22327;51.208;6.418;2022-12-07T15:18:13;9.00;97.50
36292;DHT22;22327;51.208;6.418;2022-12-07T15:20:39;8.80;97.60
36292;DHT22;22327;51.208;6.418;2022-12-07T15:23:04;8.80;97.80
36292;DHT22;22327;51.208;6.418;2022-12-07T15:25:30;8.70;97.80
36292;DHT22;22327;51.208;6.418;2022-12-07T15:27:55;8.70;97.90
36292;DHT22;22327;51.208;6.418;2022-12-07T15:30:21;8.60;98.10
36292;DHT22;22327;51.208;6.418;2022-12-07T15:32:51;8.60;98.10
36292;DHT22;22327;51.208;6.418;2022-12-07T15:35:16;8.50;98.20
36292;DHT22;22327;51.208;6.418;2022-12-07T15:37:42;8.50;98.50
36292;DHT22;22327;51.208;6.418;2022-12-07T15:40:08;8.40;98.60
36292;DHT22;22327;51.208;6.418;2022-12-07T15:42:35;8.40;98.80
36292;DHT22;22327;51.208;6.418;2022-12-07T15:45:01;8.40;98.90
36292;DHT22;22327;51.208;6.418;2022-12-07T15:47:40;8.40;98.90
36292;DHT22;22327;51.208;6.418;2022-12-07T15:50:08;8.50;98.90
36292;DHT22;22327;51.208;6.418;2022-12-07T15:52:34;8.50;98.90
36292;DHT22;22327;51.208;6.418;2022-12-07T15:55:00;8.50;99.00
36292;DHT22;22327;51.208;6.418;2022-12-07T15:57:28;8.60;99.10
36292;DHT22;22327;51.208;6.418;2022-12-07T15:59:53;8.70;99.00
36292;DHT22;22327;51.208;6.418;2022-12-07T16:02:19;8.70;98.90
36292;DHT22;22327;51.208;6.418;2022-12-07T16:04:44;8.70;98.90
36292;DHT22;22327;51.208;6.418;2022-12-07T16:07:10;8.80;99.00
36292;DHT22;22327;51.208;6.418;2022-12-07T16:09:37;8.90;98.70
36292;DHT22;22327;51.208;6.418;2022-12-07T16:12:03;8.80;98.70
36292;DHT22;22327;51.208;6.418;2022-12-07T16:14:28;8.90;98.80
36292;DHT22;22327;51.208;6.418;2022-12-07T16:16:54;8.90;98.70
36292;DHT22;22327;51.208;6.418;2022-12-07T16:19:20;8.90;98.70
36292;DHT22;22327;51.208;6.418;2022-12-07T16:21:46;8.90;98.80
36292;DHT22;22327;51.208;6.418;2022-12-07T16:24:12;8.90;98.90
36292;DHT22;22327;51.208;6.418;2022-12-07T16:26:40;8.90;99.20
36292;DHT22;22327;51.208;6.418;2022-12-07T16:29:06;9.20;99.90
36292;DHT22;22327;51.208;6.418;2022-12-07T16:31:31;10.10;99.90
36292;DHT22;22327;51.208;6.418;2022-12-07T16:33:57;11.10;99.90
36292;DHT22;22327;51.208;6.418;2022-12-07T16:36:24;12.00;99.90
36292;DHT22;22327;51.208;6.418;2022-12-07T16:38:50;12.30;99.50
36292;DHT22;22327;51.208;6.418;2022-12-07T16:41:16;12.00;98.10
36292;DHT22;22327;51.208;6.418;2022-12-07T16:43:42;11.60;96.10
36292;DHT22;22327;51.208;6.418;2022-12-07T16:46:08;11.10;96.00
36292;DHT22;22327;51.208;6.418;2022-12-07T16:48:36;10.70;96.60
36292;DHT22;22327;51.208;6.418;2022-12-07T16:51:06;10.50;97.70
36292;DHT22;22327;51.208;6.418;2022-12-07T16:53:32;10.30;97.60
36292;DHT22;22327;51.208;6.418;2022-12-07T16:55:57;10.10;97.50
36292;DHT22;22327;51.208;6.418;2022-12-07T16:58:23;9.90;97.70
36292;DHT22;22327;51.208;6.418;2022-12-07T17:00:48;9.70;98.20
36292;DHT22;22327;51.208;6.418;2022-12-07T17:03:14;9.70;98.30
36292;DHT22;22327;51.208;6.418;2022-12-07T17:05:43;9.60;98.30
36292;DHT22;22327;51.208;6.418;2022-12-07T17:08:10;9.50;98.50
36292;DHT22;22327;51.208;6.418;2022-12-07T17:10:38;9.50;98.80
36292;DHT22;22327;51.208;6.418;2022-12-07T17:13:05;9.40;98.80
36292;DHT22;22327;51.208;6.418;2022-12-07T17:16:02;9.40;98.70
36292;DHT22;22327;51.208;6.418;2022-12-07T17:18:30;9.40;99.00
36292;DHT22;22327;51.208;6.418;2022-12-07T17:21:01;9.30;99.00
36292;DHT22;22327;51.208;6.418;2022-12-07T17:23:26;9.30;99.20
36292;DHT22;22327;51.208;6.418;2022-12-07T17:25:52;9.30;99.40
36292;DHT22;22327;51.208;6.418;2022-12-07T17:28:17;9.20;99.30
36292;DHT22;22327;51.208;6.418;2022-12-07T17:30:43;9.20;99.40
36292;DHT22;22327;51.208;6.418;2022-12-07T17:33:09;9.20;99.50
36292;DHT22;22327;51.208;6.418;2022-12-07T17:35:34;9.10;99.50
36292;DHT22;22327;51.208;6.418;2022-12-07T17:38:00;9.00;99.70
36292;DHT22;22327;51.208;6.418;2022-12-07T17:40:25;9.10;99.70
36292;DHT22;22327;51.208;6.418;2022-12-07T17:42:51;9.00;99.70
36292;DHT22;22327;51.208;6.418;2022-12-07T17:45:16;9.00;99.90
36292;DHT22;22327;51.208;6.418;2022-12-07T17:47:42;9.00;99.80
36292;DHT22;22327;51.208;6.418;2022-12-07T17:50:08;9.10;99.80
36292;DHT22;22327;51.208;6.418;2022-12-07T17:52:38;9.10;99.80